createdAt,value
2023-04-04T00:00:42.064Z,65.70
2023-04-04T00:02:03.216Z,65.90
2023-04-04T00:03:24.171Z,66.50
2023-04-04T00:04:44.944Z,65.90
2023-04-04T00:11:13.762Z,66.00
2023-04-04T00:12:34.667Z,65.80
2023-04-04T00:13:55.043Z,65.80
2023-04-04T00:15:17.176Z,65.10
2023-04-04T00:16:34.456Z,65.30
2023-04-04T00:17:54.928Z,65.70
2023-04-04T00:19:15.596Z,65.00
2023-04-04T00:20:36.509Z,65.10
2023-04-04T00:21:57.150Z,64.70
2023-04-04T00:23:17.847Z,64.70
2023-04-04T00:24:38.138Z,64.90
2023-04-04T00:25:58.697Z,65.60
2023-04-04T00:28:17.573Z,64.50
2023-04-04T00:29:38.153Z,65.60
2023-04-04T00:31:00.749Z,64.90
2023-04-04T00:32:21.765Z,64.90
2023-04-04T00:33:42.441Z,64.20
2023-04-04T00:35:03.004Z,64.20
2023-04-04T00:36:26.269Z,64.30
2023-04-04T00:37:47.045Z,65.10
2023-04-04T00:39:07.682Z,64.70
2023-04-04T00:40:28.451Z,65.60
2023-04-04T00:41:49.177Z,65.00
2023-04-04T00:43:10.037Z,65.80
2023-04-04T00:44:32.029Z,65.60
2023-04-04T00:45:52.833Z,65.80
2023-04-04T00:47:16.082Z,66.00
2023-04-04T00:48:36.413Z,65.70
2023-04-04T00:49:56.994Z,66.10
2023-04-04T00:51:17.530Z,65.30
2023-04-04T00:52:38.354Z,65.30
2023-04-04T00:54:01.010Z,64.90
2023-04-04T00:55:22.735Z,65.50
2023-04-04T00:56:43.593Z,65.00
2023-04-04T00:58:04.650Z,65.20
2023-04-04T00:59:26.462Z,65.50
2023-04-04T01:00:47.870Z,65.40
2023-04-04T01:02:08.717Z,65.30
2023-04-04T01:03:32.823Z,65.50
2023-04-04T01:04:53.704Z,66.40
2023-04-04T01:06:14.836Z,65.50
2023-04-04T01:07:37.074Z,65.40
2023-04-04T01:08:57.773Z,66.60
2023-04-04T01:10:18.633Z,67.20
2023-04-04T01:11:39.248Z,67.80
2023-04-04T01:13:00.491Z,68.50
2023-04-04T01:14:20.919Z,68.30
2023-04-04T01:15:41.525Z,68.90
2023-04-04T01:17:02.375Z,69.30
2023-04-04T01:18:27.076Z,69.20
2023-04-04T01:19:59.402Z,69.00
2023-04-04T01:21:20.377Z,69.00
2023-04-04T01:22:41.353Z,69.00
2023-04-04T01:24:02.832Z,68.80
2023-04-04T01:25:32.896Z,68.80
2023-04-04T01:26:53.379Z,68.20
2023-04-04T01:28:13.979Z,68.60
2023-04-04T01:29:35.590Z,68.00
2023-04-04T01:30:56.431Z,68.40
2023-04-04T01:32:21.313Z,69.10
2023-04-04T01:33:46.337Z,69.30
2023-04-04T01:35:14.006Z,69.20
2023-04-04T01:36:39.544Z,70.00
2023-04-04T01:38:14.945Z,69.90
2023-04-04T01:39:39.331Z,69.90
2023-04-04T01:41:03.968Z,69.50
2023-04-04T01:42:25.664Z,69.10
2023-04-04T01:43:46.490Z,69.50
2023-04-04T01:45:08.471Z,69.40
2023-04-04T01:46:29.726Z,69.30
2023-04-04T01:47:51.824Z,70.20
2023-04-04T01:49:12.760Z,70.70
2023-04-04T01:50:33.374Z,70.40
2023-04-04T01:51:55.236Z,69.50
2023-04-04T01:53:16.019Z,69.20
2023-04-04T01:54:37.876Z,69.60
2023-04-04T01:55:58.789Z,69.40
2023-04-04T01:57:20.754Z,69.10
2023-04-04T01:58:41.507Z,69.30
2023-04-04T02:00:07.769Z,69.30
2023-04-04T02:01:28.667Z,70.20
2023-04-04T02:02:50.315Z,70.40
2023-04-04T02:04:11.270Z,70.00
2023-04-04T02:05:35.290Z,70.30
2023-04-04T02:06:56.241Z,70.40
2023-04-04T02:08:16.994Z,70.50
2023-04-04T02:09:37.834Z,70.20
2023-04-04T02:10:58.638Z,70.10
2023-04-04T02:12:20.433Z,69.90
2023-04-04T02:13:41.178Z,70.20
2023-04-04T02:15:01.655Z,70.50
2023-04-04T02:16:22.264Z,70.00
2023-04-04T02:17:50.268Z,70.10
2023-04-04T02:19:12.802Z,70.80
2023-04-04T02:20:36.915Z,71.10
2023-04-04T02:22:00.123Z,71.20
2023-04-04T02:23:21.170Z,70.70
2023-04-04T02:24:41.679Z,71.40
2023-04-04T02:26:02.231Z,71.60
2023-04-04T02:27:23.814Z,71.50
2023-04-04T02:28:44.392Z,72.00
2023-04-04T02:30:05.855Z,72.50
2023-04-04T02:31:26.197Z,72.40
2023-04-04T02:32:46.748Z,72.70
2023-04-04T02:34:07.774Z,72.70
2023-04-04T02:35:29.321Z,72.30
2023-04-04T02:36:50.269Z,72.00
2023-04-04T02:38:10.966Z,71.70
2023-04-04T02:39:32.496Z,71.60
2023-04-04T02:40:55.276Z,71.40
2023-04-04T02:42:16.234Z,71.40
2023-04-04T02:43:38.652Z,71.50
2023-04-04T02:44:59.097Z,71.20
2023-04-04T02:46:22.037Z,71.30
2023-04-04T02:47:42.966Z,71.50
2023-04-04T02:49:03.618Z,71.90
2023-04-04T02:50:26.970Z,72.10
2023-04-04T02:51:47.713Z,71.90
2023-04-04T02:53:07.927Z,71.80
2023-04-04T02:54:29.907Z,71.50
2023-04-04T02:55:50.848Z,71.90
2023-04-04T02:57:11.609Z,72.00
2023-04-04T02:58:32.411Z,72.10
2023-04-04T02:59:54.304Z,72.10
2023-04-04T03:01:15.072Z,72.10
2023-04-04T03:02:35.896Z,72.10
2023-04-04T03:03:56.561Z,72.00
2023-04-04T03:05:17.653Z,71.50
2023-04-04T03:06:38.254Z,71.30
2023-04-04T03:08:00.328Z,71.50
2023-04-04T03:09:21.762Z,71.30
2023-04-04T03:10:42.463Z,71.30
2023-04-04T03:12:02.877Z,71.40
2023-04-04T03:13:23.888Z,71.50
2023-04-04T03:14:45.281Z,71.90
2023-04-04T03:16:07.684Z,71.50
2023-04-04T03:17:28.533Z,71.90
2023-04-04T03:18:49.461Z,71.70
2023-04-04T03:20:11.659Z,71.80
2023-04-04T03:21:32.123Z,71.70
2023-04-04T03:22:55.495Z,71.90
2023-04-04T03:24:17.574Z,72.00
2023-04-04T03:25:38.109Z,71.90
2023-04-04T03:26:59.933Z,71.50
2023-04-04T03:28:20.291Z,71.90
2023-04-04T03:29:41.041Z,71.90
2023-04-04T03:31:04.309Z,71.80
2023-04-04T03:32:27.458Z,71.90
2023-04-04T03:33:48.309Z,71.90
2023-04-04T03:35:11.817Z,72.40
2023-04-04T03:36:32.354Z,73.00
2023-04-04T03:37:52.871Z,72.60
2023-04-04T03:39:15.064Z,72.50
2023-04-04T03:40:35.855Z,72.40
2023-04-04T03:41:57.142Z,72.70
2023-04-04T03:43:17.559Z,72.80
2023-04-04T03:44:40.155Z,72.90
2023-04-04T03:46:01.355Z,73.20
2023-04-04T03:47:22.015Z,73.20
2023-04-04T03:48:45.245Z,73.40
2023-04-04T03:50:06.646Z,73.30
2023-04-04T03:51:27.297Z,73.40
2023-04-04T03:52:47.883Z,73.60
2023-04-04T03:54:08.682Z,73.60
2023-04-04T03:55:29.038Z,74.00
2023-04-04T03:56:49.500Z,74.10
2023-04-04T03:58:10.269Z,74.00
2023-04-04T03:59:30.936Z,74.50
2023-04-04T04:00:51.682Z,74.30
2023-04-04T04:02:12.654Z,74.10
2023-04-04T04:03:33.574Z,74.10
2023-04-04T04:04:58.468Z,74.00
2023-04-04T04:06:19.278Z,74.10
2023-04-04T04:07:43.249Z,74.10
2023-04-04T04:09:05.143Z,73.80
2023-04-04T04:10:26.546Z,74.10
2023-04-04T04:11:48.237Z,74.60
2023-04-04T04:13:08.753Z,74.20
2023-04-04T04:14:29.674Z,74.30
2023-04-04T04:15:50.439Z,74.10
2023-04-04T04:17:10.968Z,74.00
2023-04-04T04:18:34.620Z,73.80
2023-04-04T04:19:58.091Z,73.80
2023-04-04T04:21:25.917Z,73.80
2023-04-04T04:22:46.741Z,73.60
2023-04-04T04:24:07.732Z,73.60
2023-04-04T04:25:28.476Z,73.60
2023-04-04T04:26:48.676Z,73.40
2023-04-04T04:28:09.800Z,74.00
2023-04-04T04:29:37.732Z,74.40
2023-04-04T04:31:04.672Z,74.40
2023-04-04T04:32:26.776Z,74.40
2023-04-04T04:33:47.390Z,74.50
2023-04-04T04:35:11.155Z,74.80
2023-04-04T04:36:32.017Z,75.10
2023-04-04T04:37:53.248Z,74.90
2023-04-04T04:39:13.946Z,75.20
2023-04-04T04:40:34.598Z,74.80
2023-04-04T04:41:55.282Z,74.80
2023-04-04T04:43:15.958Z,74.90
2023-04-04T04:44:36.685Z,74.90
2023-04-04T04:45:57.296Z,74.80
2023-04-04T04:47:18.014Z,74.80
2023-04-04T04:48:38.595Z,74.60
2023-04-04T04:49:59.220Z,74.40
2023-04-04T04:51:21.303Z,74.50
2023-04-04T04:52:42.047Z,74.40
2023-04-04T04:54:02.896Z,74.60
2023-04-04T04:55:23.690Z,74.60
2023-04-04T04:56:44.371Z,74.70
2023-04-04T04:58:04.927Z,75.00
2023-04-04T04:59:25.766Z,75.00
2023-04-04T05:00:46.394Z,74.90
2023-04-04T05:02:07.365Z,74.80
2023-04-04T05:03:28.004Z,74.70
2023-04-04T05:04:48.765Z,74.60
2023-04-04T05:06:09.127Z,74.70
2023-04-04T05:07:30.989Z,74.70
2023-04-04T05:08:51.745Z,74.60
2023-04-04T05:10:12.538Z,74.70
2023-04-04T05:11:33.181Z,74.60
2023-04-04T05:12:53.856Z,74.50
2023-04-04T05:14:14.456Z,74.40
2023-04-04T05:15:35.343Z,74.50
2023-04-04T05:16:56.051Z,74.60
2023-04-04T05:18:17.065Z,75.00
2023-04-04T05:19:37.937Z,75.40
2023-04-04T05:20:58.583Z,75.70
2023-04-04T05:22:19.152Z,75.30
2023-04-04T05:23:41.047Z,75.10
2023-04-04T05:25:01.911Z,75.50
2023-04-04T05:26:22.554Z,75.50
2023-04-04T05:27:46.911Z,75.60
2023-04-04T05:29:07.655Z,76.00
2023-04-04T05:30:28.640Z,76.10
2023-04-04T05:31:49.558Z,76.10
2023-04-04T05:33:10.294Z,76.30
2023-04-04T05:34:30.980Z,76.50
2023-04-04T05:35:51.741Z,76.50
2023-04-04T05:37:12.457Z,76.50
2023-04-04T05:38:33.350Z,76.00
2023-04-04T05:39:55.418Z,76.10
2023-04-04T05:41:15.959Z,76.10
2023-04-04T05:42:36.589Z,76.10
2023-04-04T05:43:57.106Z,76.30
2023-04-04T05:45:17.831Z,76.60
2023-04-04T05:46:38.971Z,76.00
2023-04-04T05:47:59.539Z,76.10
2023-04-04T05:49:20.272Z,76.10
2023-04-04T05:50:41.355Z,76.10
2023-04-04T05:52:01.968Z,76.10
2023-04-04T05:53:22.523Z,75.90
2023-04-04T05:54:43.652Z,76.60
2023-04-04T05:56:05.868Z,76.70
2023-04-04T05:57:26.021Z,77.10
2023-04-04T05:58:46.559Z,76.80
2023-04-04T06:00:08.804Z,77.10
2023-04-04T06:01:29.691Z,77.10
2023-04-04T06:02:50.777Z,77.30
2023-04-04T06:04:12.028Z,77.10
2023-04-04T06:05:32.484Z,76.80
2023-04-04T06:06:52.944Z,76.70
2023-04-04T06:08:13.740Z,76.40
2023-04-04T06:09:34.794Z,76.20
2023-04-04T06:10:55.548Z,76.30
2023-04-04T06:12:17.510Z,76.20
2023-04-04T06:13:37.965Z,75.70
2023-04-04T06:14:58.645Z,75.40
2023-04-04T06:16:19.369Z,75.20
2023-04-04T06:17:40.200Z,75.40
2023-04-04T06:19:00.874Z,75.10
2023-04-04T06:20:21.593Z,75.00
2023-04-04T06:21:42.319Z,74.70
2023-04-04T06:23:02.858Z,74.40
2023-04-04T06:24:23.731Z,74.40
2023-04-04T06:25:44.302Z,74.30
2023-04-04T06:27:05.002Z,73.70
2023-04-04T06:28:26.826Z,73.50
2023-04-04T06:29:47.487Z,73.20
2023-04-04T06:31:08.231Z,73.80
2023-04-04T06:32:29.037Z,74.30
2023-04-04T06:33:49.572Z,74.50
2023-04-04T06:35:10.099Z,75.00
2023-04-04T06:36:30.804Z,74.40
2023-04-04T06:37:55.742Z,74.40
2023-04-04T06:39:16.228Z,74.40
2023-04-04T06:40:36.950Z,74.00
2023-04-04T06:41:57.673Z,74.00
2023-04-04T06:43:18.539Z,73.80
2023-04-04T06:44:40.888Z,73.30
2023-04-04T06:46:02.265Z,73.60
2023-04-04T06:47:22.850Z,73.50
2023-04-04T06:48:43.726Z,73.70
2023-04-04T06:50:04.643Z,73.40
2023-04-04T06:51:25.588Z,72.20
2023-04-04T06:52:46.012Z,71.90
2023-04-04T06:54:07.064Z,71.80
2023-04-04T06:55:27.841Z,72.10
2023-04-04T06:56:48.593Z,71.70
2023-04-04T06:58:09.204Z,71.10
2023-04-04T06:59:29.968Z,71.30
2023-04-04T07:00:52.515Z,71.00
2023-04-04T07:02:13.236Z,70.70
2023-04-04T07:03:33.970Z,70.50
2023-04-04T07:04:54.659Z,70.10
2023-04-04T07:06:15.231Z,69.30
2023-04-04T07:07:36.044Z,69.20
2023-04-04T07:08:56.809Z,68.40
2023-04-04T07:10:17.396Z,68.50
2023-04-04T07:11:38.035Z,68.30
2023-04-04T07:12:58.865Z,68.70
2023-04-04T07:14:19.560Z,68.60
2023-04-04T07:15:40.414Z,68.30
2023-04-04T07:17:10.704Z,67.90
2023-04-04T07:18:38.094Z,67.50
2023-04-04T07:19:58.786Z,68.20
2023-04-04T07:21:19.497Z,68.90
2023-04-04T07:22:40.805Z,67.50
2023-04-04T07:24:01.375Z,66.60
2023-04-04T07:25:22.295Z,66.00
2023-04-04T07:26:42.967Z,65.80
2023-04-04T07:28:12.345Z,65.20
2023-04-04T07:29:34.190Z,64.70
2023-04-04T07:30:54.718Z,64.10
2023-04-04T07:32:16.347Z,63.90
2023-04-04T07:33:37.142Z,64.10
2023-04-04T07:34:57.911Z,64.30
2023-04-04T07:36:18.361Z,64.40
2023-04-04T07:37:39.185Z,64.70
2023-04-04T07:38:59.965Z,64.30
2023-04-04T07:40:20.574Z,64.30
2023-04-04T07:41:41.438Z,64.70
2023-04-04T07:43:02.105Z,65.10
2023-04-04T07:44:22.788Z,64.90
2023-04-04T07:45:43.687Z,64.70
2023-04-04T07:47:09.694Z,64.90
2023-04-04T07:48:32.596Z,64.60
2023-04-04T07:49:53.365Z,64.20
2023-04-04T07:51:14.077Z,65.20
2023-04-04T07:52:34.954Z,64.90
2023-04-04T07:53:56.165Z,64.40
2023-04-04T07:55:17.224Z,64.00
2023-04-04T07:56:37.828Z,63.50
2023-04-04T07:57:58.542Z,63.30
2023-04-04T07:59:19.147Z,62.30
2023-04-04T08:00:39.806Z,62.40
2023-04-04T08:02:00.655Z,61.40
2023-04-04T08:03:21.783Z,61.70
2023-04-04T08:04:44.176Z,61.40
2023-04-04T08:06:04.747Z,61.10
2023-04-04T08:07:25.498Z,60.30
2023-04-04T08:08:46.283Z,60.20
2023-04-04T08:10:08.666Z,60.30
2023-04-04T08:11:29.305Z,60.30
2023-04-04T08:12:49.916Z,60.50
2023-04-04T08:14:10.663Z,59.80
2023-04-04T08:15:31.221Z,59.50
2023-04-04T08:16:52.013Z,58.80
2023-04-04T08:18:12.793Z,60.10
2023-04-04T08:19:33.599Z,60.00
2023-04-04T08:20:56.035Z,57.60
2023-04-04T08:22:16.873Z,56.60
2023-04-04T08:23:37.712Z,56.60
2023-04-04T08:25:01.093Z,56.60
2023-04-04T08:26:21.722Z,57.00
2023-04-04T08:27:42.432Z,56.60
2023-04-04T08:29:03.797Z,56.10
2023-04-04T08:30:24.317Z,56.50
2023-04-04T08:31:45.142Z,55.50
2023-04-04T08:33:06.510Z,55.70
2023-04-04T08:34:27.152Z,55.00
2023-04-04T08:35:47.897Z,54.70
2023-04-04T08:37:09.859Z,54.00
2023-04-04T08:38:30.354Z,53.50
2023-04-04T08:39:51.074Z,53.30
2023-04-04T08:41:12.336Z,53.30
2023-04-04T08:42:34.066Z,53.30
2023-04-04T08:43:54.662Z,52.40
2023-04-04T08:45:17.606Z,53.80
2023-04-04T08:46:38.335Z,52.80
2023-04-04T08:47:59.202Z,51.90
2023-04-04T08:49:20.316Z,53.20
2023-04-04T08:50:44.744Z,53.70
2023-04-04T08:52:05.879Z,55.70
2023-04-04T08:53:28.829Z,54.20
2023-04-04T08:54:51.387Z,54.00
2023-04-04T08:56:12.210Z,53.30
2023-04-04T08:57:32.771Z,52.30
2023-04-04T08:58:53.537Z,52.20
2023-04-04T09:00:15.268Z,53.30
2023-04-04T09:01:36.034Z,52.70
2023-04-04T09:03:13.505Z,54.30
2023-04-04T09:04:34.120Z,52.50
2023-04-04T09:05:55.206Z,51.90
2023-04-04T09:07:15.961Z,53.60
2023-04-04T09:08:37.783Z,54.10
2023-04-04T09:09:58.805Z,54.70
2023-04-04T09:11:21.857Z,55.10
2023-04-04T09:12:44.282Z,54.50
2023-04-04T09:14:04.687Z,54.00
2023-04-04T09:15:25.533Z,53.50
2023-04-04T09:16:46.536Z,53.60
2023-04-04T09:18:07.334Z,53.20
2023-04-04T09:19:28.133Z,54.70
2023-04-04T09:20:49.103Z,52.00
2023-04-04T09:22:09.889Z,51.50
2023-04-04T09:23:30.382Z,53.60
2023-04-04T09:24:53.068Z,52.20
2023-04-04T09:26:13.523Z,52.30
2023-04-04T09:27:34.085Z,51.90
2023-04-04T09:28:55.172Z,52.30
2023-04-04T09:30:16.210Z,51.50
2023-04-04T09:31:36.764Z,52.20
2023-04-04T09:33:01.049Z,52.40
2023-04-04T09:34:21.760Z,52.70
2023-04-04T09:35:45.901Z,52.30
2023-04-04T09:37:06.758Z,51.90
2023-04-04T09:38:29.034Z,52.40
2023-04-04T09:39:49.975Z,52.20
2023-04-04T09:41:14.760Z,52.10
2023-04-04T09:42:35.338Z,51.90
2023-04-04T09:43:57.838Z,52.00
2023-04-04T09:45:25.928Z,51.90
2023-04-04T09:46:52.764Z,49.80
2023-04-04T09:48:13.616Z,50.40
2023-04-04T09:49:34.259Z,51.10
2023-04-04T09:50:55.176Z,50.60
2023-04-04T09:52:18.522Z,51.10
2023-04-04T09:53:39.740Z,52.30
2023-04-04T09:55:01.823Z,51.10
2023-04-04T09:56:23.703Z,50.50
2023-04-04T09:57:45.995Z,50.80
2023-04-04T09:59:06.940Z,51.10
2023-04-04T10:00:29.286Z,50.50
2023-04-04T10:01:50.324Z,51.80
2023-04-04T10:03:13.044Z,50.70
2023-04-04T10:04:35.631Z,50.00
2023-04-04T10:05:59.281Z,50.50
2023-04-04T10:07:19.803Z,50.80
2023-04-04T10:08:40.812Z,51.20
2023-04-04T10:10:01.967Z,51.00
2023-04-04T10:11:30.963Z,51.30
2023-04-04T10:12:52.594Z,51.30
2023-04-04T10:14:13.126Z,51.00
2023-04-04T10:15:36.101Z,50.90
2023-04-04T10:16:57.104Z,51.30
2023-04-04T10:18:18.767Z,50.50
2023-04-04T10:19:39.590Z,51.40
2023-04-04T10:21:12.294Z,52.00
2023-04-04T10:22:36.367Z,52.80
2023-04-04T10:23:56.834Z,51.10
2023-04-04T10:25:17.844Z,51.10
2023-04-04T10:26:39.977Z,50.90
2023-04-04T10:28:00.460Z,52.20
2023-04-04T10:29:21.189Z,50.40
2023-04-04T10:30:55.759Z,49.10
2023-04-04T10:32:28.229Z,51.00
2023-04-04T10:33:56.137Z,51.00
2023-04-04T10:35:18.066Z,50.70
2023-04-04T10:36:45.499Z,51.80
2023-04-04T10:38:06.369Z,50.30
2023-04-04T10:39:29.820Z,50.10
2023-04-04T10:40:50.507Z,50.40
2023-04-04T10:42:14.938Z,50.70
2023-04-04T10:43:35.693Z,49.30
2023-04-04T10:44:56.263Z,47.90
2023-04-04T10:46:18.990Z,49.60
2023-04-04T10:47:41.304Z,50.20
2023-04-04T10:49:02.575Z,49.00
2023-04-04T10:50:23.351Z,49.20
2023-04-04T10:51:54.878Z,48.30
2023-04-04T10:53:16.634Z,48.20
2023-04-04T10:54:37.438Z,48.00
2023-04-04T10:55:58.696Z,48.60
2023-04-04T10:57:20.538Z,49.00
2023-04-04T10:58:41.669Z,49.70
2023-04-04T11:00:04.336Z,49.70
2023-04-04T11:01:47.265Z,49.20
2023-04-04T11:03:07.656Z,49.20
2023-04-04T11:04:32.682Z,50.20
2023-04-04T11:05:53.854Z,49.20
2023-04-04T11:07:16.279Z,49.70
2023-04-04T11:08:40.200Z,49.60
2023-04-04T11:10:01.428Z,48.80
2023-04-04T11:11:23.147Z,49.00
2023-04-04T11:12:46.030Z,48.90
2023-04-04T11:14:06.725Z,47.90
2023-04-04T11:15:27.420Z,48.50
2023-04-04T11:16:51.788Z,48.70
2023-04-04T11:18:27.067Z,48.60
2023-04-04T11:19:59.151Z,49.40
2023-04-04T11:21:20.670Z,48.40
2023-04-04T11:22:41.429Z,51.20
2023-04-04T11:24:14.662Z,48.70
2023-04-04T11:25:36.920Z,47.80
2023-04-04T11:26:57.535Z,48.10
2023-04-04T11:28:43.671Z,48.30
2023-04-04T11:30:12.812Z,47.30
2023-04-04T11:31:34.217Z,47.50
2023-04-04T11:33:06.576Z,46.90
2023-04-04T11:34:33.521Z,46.60
2023-04-04T11:35:58.863Z,46.60
2023-04-04T11:37:19.494Z,46.60
2023-04-04T11:38:40.433Z,48.10
2023-04-04T11:40:09.576Z,47.40
2023-04-04T11:41:43.566Z,45.60
2023-04-04T11:43:08.304Z,47.00
2023-04-04T11:44:32.134Z,46.70
2023-04-04T11:45:53.213Z,46.60
2023-04-04T11:47:13.934Z,45.80
2023-04-04T11:48:34.906Z,47.60
2023-04-04T11:49:57.313Z,48.10
2023-04-04T11:51:19.047Z,45.50
2023-04-04T11:52:40.941Z,44.90
2023-04-04T11:54:01.905Z,47.40
2023-04-04T11:55:22.645Z,45.90
2023-04-04T11:56:44.236Z,46.10
2023-04-04T11:58:13.269Z,46.30
2023-04-04T11:59:40.054Z,45.80
2023-04-04T12:01:00.462Z,47.50
2023-04-04T12:02:24.034Z,45.30
2023-04-04T12:03:44.677Z,46.00
2023-04-04T12:05:06.319Z,45.80
2023-04-04T12:06:29.979Z,47.50
2023-04-04T12:07:51.489Z,46.20
2023-04-04T12:09:11.925Z,46.70
2023-04-04T12:10:35.206Z,45.00
2023-04-04T12:11:55.943Z,44.90
2023-04-04T12:13:16.429Z,45.00
2023-04-04T12:14:38.694Z,44.50
2023-04-04T12:15:59.252Z,45.30
2023-04-04T12:17:20.104Z,45.20
2023-04-04T12:18:40.483Z,45.20
2023-04-04T12:20:01.413Z,47.00
2023-04-04T12:21:22.077Z,45.70
2023-04-04T12:22:45.859Z,45.50
2023-04-04T12:24:07.381Z,45.00
2023-04-04T12:25:28.222Z,47.40
2023-04-04T12:26:51.002Z,45.00
2023-04-04T12:28:11.991Z,43.20
2023-04-04T12:29:33.189Z,43.30
2023-04-04T12:30:55.125Z,45.50
2023-04-04T12:32:15.746Z,43.00
2023-04-04T12:33:36.597Z,44.40
2023-04-04T12:35:01.060Z,44.90
2023-04-04T12:36:28.340Z,44.70
2023-04-04T12:38:06.909Z,46.20
2023-04-04T12:39:31.243Z,42.30
2023-04-04T12:41:01.608Z,44.80
2023-04-04T12:42:25.197Z,45.00
2023-04-04T12:43:46.950Z,46.30
2023-04-04T12:45:08.803Z,44.50
2023-04-04T12:46:35.941Z,46.90
2023-04-04T12:47:57.264Z,44.00
2023-04-04T12:49:20.978Z,44.70
2023-04-04T12:50:52.232Z,43.90
2023-04-04T12:52:17.830Z,44.20
2023-04-04T12:53:51.256Z,44.50
2023-04-04T12:55:12.524Z,44.80
2023-04-04T12:56:34.063Z,44.30
2023-04-04T12:57:55.098Z,41.80
2023-04-04T12:59:15.553Z,44.70
2023-04-04T13:00:36.162Z,45.10
2023-04-04T13:01:58.265Z,44.10
2023-04-04T13:03:21.451Z,42.30
2023-04-04T13:04:45.573Z,41.20
2023-04-04T13:06:12.029Z,41.80
2023-04-04T13:07:33.565Z,41.80
2023-04-04T13:08:54.919Z,43.70
2023-04-04T13:10:15.760Z,42.60
2023-04-04T13:11:57.436Z,44.70
2023-04-04T13:13:34.463Z,43.00
2023-04-04T13:14:59.240Z,42.10
2023-04-04T13:16:31.000Z,43.10
2023-04-04T13:17:53.152Z,44.40
2023-04-04T13:19:13.708Z,41.50
2023-04-04T13:20:34.419Z,41.80
2023-04-04T13:21:55.215Z,41.50
2023-04-04T13:23:15.853Z,42.80
2023-04-04T13:24:36.224Z,41.50
2023-04-04T13:25:56.997Z,42.60
2023-04-04T13:27:17.767Z,41.30
2023-04-04T13:28:38.785Z,41.00
2023-04-04T13:29:59.350Z,42.40
2023-04-04T13:31:20.309Z,42.90
2023-04-04T13:32:41.133Z,43.60
2023-04-04T13:34:03.146Z,41.60
2023-04-04T13:35:23.901Z,41.40
2023-04-04T13:36:44.405Z,41.60
2023-04-04T13:38:04.945Z,43.00
2023-04-04T13:39:25.306Z,44.10
2023-04-04T13:40:46.006Z,42.30
2023-04-04T13:42:06.912Z,44.80
2023-04-04T13:43:27.804Z,43.50
2023-04-04T13:44:48.217Z,40.10
2023-04-04T13:46:09.053Z,42.80
2023-04-04T13:47:29.179Z,41.70
2023-04-04T13:48:49.543Z,41.50
2023-04-04T13:50:11.847Z,41.20
2023-04-04T13:51:32.525Z,42.40
2023-04-04T13:52:53.350Z,42.20
2023-04-04T13:54:14.027Z,42.20
2023-04-04T13:55:34.560Z,40.20
2023-04-04T13:56:55.838Z,42.00
2023-04-04T13:58:16.756Z,40.70
2023-04-04T13:59:37.580Z,41.50
2023-04-04T14:00:58.230Z,41.90
2023-04-04T14:02:19.005Z,40.90
2023-04-04T14:03:39.687Z,41.00
2023-04-04T14:05:00.396Z,38.50
2023-04-04T14:06:22.536Z,39.20
2023-04-04T14:07:43.287Z,43.00
2023-04-04T14:09:04.065Z,42.40
2023-04-04T14:10:24.904Z,41.00
2023-04-04T14:11:45.522Z,41.10
2023-04-04T14:13:06.555Z,40.70
2023-04-04T14:14:27.157Z,39.50
2023-04-04T14:15:48.008Z,38.80
2023-04-04T14:17:08.492Z,39.20
2023-04-04T14:18:29.159Z,39.10
2023-04-04T14:19:50.078Z,39.00
2023-04-04T14:21:11.119Z,39.90
2023-04-04T14:22:33.173Z,40.00
2023-04-04T14:23:53.898Z,40.70
2023-04-04T14:25:15.592Z,39.80
2023-04-04T14:26:36.039Z,38.30
2023-04-04T14:27:56.831Z,38.80
2023-04-04T14:29:17.598Z,39.70
2023-04-04T14:30:38.554Z,39.40
2023-04-04T14:31:59.630Z,39.10
2023-04-04T14:33:20.178Z,40.50
2023-04-04T14:34:41.054Z,40.30
2023-04-04T14:36:01.783Z,41.00
2023-04-04T14:37:22.646Z,38.90
2023-04-04T14:38:44.725Z,38.90
2023-04-04T14:40:06.182Z,39.20
2023-04-04T14:41:26.913Z,40.10
2023-04-04T14:42:47.660Z,38.60
2023-04-04T14:44:08.394Z,39.30
2023-04-04T14:45:29.320Z,40.30
2023-04-04T14:46:52.006Z,38.40
2023-04-04T14:48:12.297Z,38.80
2023-04-04T14:49:32.910Z,39.50
2023-04-04T14:50:53.954Z,39.50
2023-04-04T14:52:14.641Z,38.90
2023-04-04T14:53:35.340Z,39.40
2023-04-04T14:54:58.072Z,38.10
2023-04-04T14:56:20.158Z,39.80
2023-04-04T14:57:57.091Z,40.10
2023-04-04T14:59:21.944Z,39.40
2023-04-04T15:00:42.762Z,38.60
2023-04-04T15:02:03.554Z,39.10
2023-04-04T15:03:24.095Z,38.80
2023-04-04T15:04:45.138Z,39.30
2023-04-04T15:06:06.253Z,38.90
2023-04-04T15:07:27.063Z,39.40
2023-04-04T15:08:47.921Z,38.80
2023-04-04T15:10:10.492Z,38.50
2023-04-04T15:11:31.529Z,37.90
2023-04-04T15:12:52.483Z,38.50
2023-04-04T15:14:13.286Z,38.10
2023-04-04T15:15:33.679Z,39.10
2023-04-04T15:16:54.836Z,38.40
2023-04-04T15:18:15.790Z,37.70
2023-04-04T15:19:36.589Z,37.70
2023-04-04T15:20:57.972Z,38.50
2023-04-04T15:22:18.605Z,37.80
2023-04-04T15:23:39.266Z,39.00
2023-04-04T15:24:59.801Z,39.90
2023-04-04T15:26:21.816Z,38.10
2023-04-04T15:27:42.193Z,37.90
2023-04-04T15:29:02.902Z,36.50
2023-04-04T15:30:23.886Z,36.60
2023-04-04T15:31:44.593Z,36.60
2023-04-04T15:33:05.901Z,38.60
2023-04-04T15:34:26.613Z,37.70
2023-04-04T15:35:47.175Z,37.50
2023-04-04T15:37:07.836Z,37.80
2023-04-04T15:38:28.449Z,40.00
2023-04-04T15:39:53.617Z,40.60
2023-04-04T15:41:14.813Z,40.70
2023-04-04T15:42:36.893Z,39.70
2023-04-04T15:43:57.288Z,38.50
2023-04-04T15:45:17.878Z,39.10
2023-04-04T15:46:38.705Z,39.20
2023-04-04T15:47:59.429Z,39.20
2023-04-04T15:49:20.147Z,39.30
2023-04-04T15:50:41.120Z,39.70
2023-04-04T15:52:02.960Z,39.80
2023-04-04T15:53:23.780Z,38.10
2023-04-04T15:54:44.322Z,40.40
2023-04-04T15:56:05.054Z,38.90
2023-04-04T15:57:26.077Z,39.80
2023-04-04T15:58:48.025Z,39.90
2023-04-04T16:00:09.853Z,38.30
2023-04-04T16:01:32.018Z,37.50
2023-04-04T16:02:52.792Z,37.60
2023-04-04T16:04:13.453Z,37.90
2023-04-04T16:05:34.320Z,38.40
2023-04-04T16:06:55.214Z,38.70
2023-04-04T16:08:16.425Z,37.80
2023-04-04T16:09:37.256Z,36.60
2023-04-04T16:10:58.292Z,38.80
2023-04-04T16:12:18.769Z,38.20
2023-04-04T16:13:39.453Z,37.70
2023-04-04T16:15:01.711Z,37.70
2023-04-04T16:16:22.615Z,38.50
2023-04-04T16:17:43.162Z,38.50
2023-04-04T16:19:03.757Z,39.10
2023-04-04T16:20:25.472Z,38.10
2023-04-04T16:21:46.137Z,38.40
2023-04-04T16:23:07.228Z,38.50
2023-04-04T16:24:28.290Z,38.60
2023-04-04T16:25:48.919Z,38.60
2023-04-04T16:27:09.696Z,37.10
2023-04-04T16:28:30.791Z,38.80
2023-04-04T16:29:52.040Z,37.90
2023-04-04T16:31:14.464Z,38.70
2023-04-04T16:32:34.998Z,38.90
2023-04-04T16:33:55.595Z,37.20
2023-04-04T16:35:16.387Z,39.10
2023-04-04T16:36:37.214Z,37.60
2023-04-04T16:37:57.941Z,38.40
2023-04-04T16:39:18.642Z,41.70
2023-04-04T16:40:39.509Z,41.80
2023-04-04T16:41:59.900Z,41.80
2023-04-04T16:43:20.760Z,43.30
2023-04-04T16:44:41.535Z,44.40
2023-04-04T16:46:04.206Z,43.90
2023-04-04T16:47:26.816Z,43.40
2023-04-04T16:48:49.255Z,43.00
2023-04-04T16:50:11.033Z,43.20
2023-04-04T16:51:31.596Z,43.20
2023-04-04T16:52:52.308Z,43.10
2023-04-04T16:54:13.127Z,43.90
2023-04-04T16:55:33.449Z,44.50
2023-04-04T16:56:54.416Z,44.40
2023-04-04T16:58:15.310Z,44.00
2023-04-04T16:59:36.180Z,44.50
2023-04-04T17:00:56.977Z,45.20
2023-04-04T17:02:17.646Z,44.70
2023-04-04T17:03:39.814Z,45.10
2023-04-04T17:05:00.429Z,46.20
2023-04-04T17:06:21.252Z,46.40
2023-04-04T17:07:42.213Z,45.80
2023-04-04T17:09:02.520Z,46.10
2023-04-04T17:10:23.294Z,46.60
2023-04-04T17:11:44.184Z,47.50
2023-04-04T17:13:04.791Z,47.00
2023-04-04T17:14:25.800Z,47.10
2023-04-04T17:15:46.712Z,47.20
2023-04-04T17:17:07.962Z,46.50
2023-04-04T17:18:28.681Z,46.30
2023-04-04T17:19:51.009Z,46.90
2023-04-04T17:21:11.703Z,45.90
2023-04-04T17:22:32.465Z,46.10
2023-04-04T17:23:53.977Z,46.00
2023-04-04T17:25:14.929Z,46.70
2023-04-04T17:26:35.784Z,46.70
2023-04-04T17:27:56.939Z,47.20
2023-04-04T17:29:17.462Z,48.00
2023-04-04T17:30:38.369Z,48.70
2023-04-04T17:31:59.073Z,48.90
2023-04-04T17:33:19.874Z,49.40
2023-04-04T17:34:40.962Z,48.80
2023-04-04T17:36:03.930Z,48.90
2023-04-04T17:37:25.029Z,48.70
2023-04-04T17:38:45.795Z,47.60
2023-04-04T17:40:08.051Z,48.30